Time;durP1;ratioP1;P1;durP2;ratioP2;P2;SDS_P1;SDS_P2;PMS_P1;PMS_P2;Temp;Humidity;BMP_temperature;BMP_pressure;BME280_temperature;BME280_humidity;BME280_pressure;Samples;Min_cycle;Max_cycle;Signal;HPM_P1;HPM_P2
2023/04/13 00:02:45;;;;;;;;;;;;;;;18.22;57.85;99289.33;2237124;79;50638;-75
2023/04/13 00:05:47;;;;;;;;;;;;;;;18.17;57.97;99289.15;2236914;79;51705;-75
2023/04/13 00:08:49;;;;;;;;;;;;;;;18.20;57.93;99302.10;2237509;79;50313;-75
2023/04/13 00:11:51;;;;;;;;;;;;;;;18.24;57.86;99301.47;2208287;79;51456;-76
2023/04/13 00:14:53;;;;;;;;;;;;;;;18.23;58.11;99288.28;2207612;79;51588;-77
2023/04/13 00:17:54;;;;;;;;;;;;;;;18.22;58.17;99279.96;2236479;79;50416;-76
2023/04/13 00:20:56;;;;;;;;;;;;;;;18.25;57.97;99303.62;2222334;78;51182;-76
2023/04/13 00:23:57;;;;;;;;;;;;;;;18.23;58.13;99292.30;2243962;78;51578;-77
2023/04/13 00:27:00;;;;;;;;;;;;;;;18.24;57.94;99296.64;2293307;77;51558;-78
2023/04/13 00:30:02;;;;;;;;;;;;;;;18.21;57.95;99293.88;2271579;78;50274;-76
2023/04/13 00:33:04;;;;;;;;;;;;;;;18.18;58.07;99280.07;2199218;79;51846;-76
2023/04/13 00:36:05;;;;;;;;;;;;;;;18.19;58.05;99286.56;2259952;78;50421;-76
2023/04/13 00:39:07;;;;;;;;;;;;;;;18.17;58.05;99296.66;2226547;80;51435;-77
2023/04/13 00:42:09;;;;;;;;;;;;;;;18.19;57.99;99293.78;2223670;80;51585;-77
2023/04/13 00:45:12;;;;;;;;;;;;;;;18.20;58.00;99307.45;2225163;80;52403;-75
2023/04/13 00:48:14;;;;;;;;;;;;;;;18.20;58.01;99312.81;2227584;78;51594;-74
2023/04/13 00:51:16;;;;;;;;;;;;;;;18.20;58.07;99316.83;2229449;78;51334;-76
2023/04/13 00:54:18;;;;;;;;;;;;;;;18.19;58.11;99333.42;2277885;78;50360;-75
2023/04/13 00:57:19;;;;;;;;;;;;;;;18.22;58.15;99332.17;2238126;78;51667;-77
2023/04/13 01:00:23;;;;;;;;;;;;;;;18.25;58.10;99333.08;2259216;78;50305;-76
2023/04/13 01:03:26;;;;;;;;;;;;;;;18.25;58.04;99346.46;2222019;79;22387;-76
2023/04/13 01:06:35;;;;;;;;;;;;;;;18.24;57.98;99355.55;2254266;78;51527;-76
2023/04/13 01:09:51;;;;;;;;;;;;;;;18.21;58.06;99360.80;2277950;78;50145;-77
2023/04/13 01:12:57;;;;;;;;;;;;;;;18.20;58.04;99375.73;2239092;78;50443;-76
2023/04/13 01:16:01;;;;;;;;;;;;;;;18.21;58.15;99381.38;2259018;78;50353;-76
2023/04/13 01:19:03;;;;;;;;;;;;;;;18.25;58.05;99382.61;2251398;78;51588;-77
2023/04/13 01:22:05;;;;;;;;;;;;;;;18.23;58.16;99370.77;2265412;78;51482;-76
2023/04/13 01:25:09;;;;;;;;;;;;;;;18.23;58.20;99360.05;2239268;79;50449;-76
2023/04/13 01:28:12;;;;;;;;;;;;;;;18.21;58.35;99377.36;2276590;78;51747;-76
2023/04/13 01:31:14;;;;;;;;;;;;;;;18.23;58.28;99402.08;2238252;79;50919;-78
2023/04/13 01:34:16;;;;;;;;;;;;;;;18.21;58.30;99391.59;2252562;78;49723;-77
2023/04/13 01:37:17;;;;;;;;;;;;;;;18.22;58.20;99416.51;2276659;78;50606;-78
2023/04/13 01:40:20;;;;;;;;;;;;;;;18.24;58.28;99430.52;2253397;78;50311;-77
2023/04/13 01:43:22;;;;;;;;;;;;;;;18.24;58.48;99427.31;2275456;78;50816;-77
2023/04/13 01:46:25;;;;;;;;;;;;;;;18.23;58.32;99414.13;2276681;78;50726;-76
2023/04/13 01:49:26;;;;;;;;;;;;;;;18.22;58.39;99425.36;2264839;78;50656;-76
2023/04/13 01:52:28;;;;;;;;;;;;;;;18.20;58.34;99435.97;2277833;78;51462;-76
2023/04/13 01:55:29;;;;;;;;;;;;;;;18.21;58.46;99441.12;2271123;77;51463;-78
2023/04/13 01:58:32;;;;;;;;;;;;;;;18.19;58.50;99449.06;2218170;79;52502;-76
2023/04/13 02:01:34;;;;;;;;;;;;;;;18.20;58.60;99445.34;2241293;78;50312;-77
2023/04/13 02:04:35;;;;;;;;;;;;;;;18.21;58.55;99449.65;2241102;78;50274;-77
2023/04/13 02:07:38;;;;;;;;;;;;;;;18.21;58.55;99462.55;2218154;78;50355;-77
2023/04/13 02:10:41;;;;;;;;;;;;;;;18.19;58.57;99467.28;2218627;79;52594;-73
2023/04/13 02:13:43;;;;;;;;;;;;;;;18.18;58.60;99462.94;2219052;79;51564;-75
2023/04/13 02:16:45;;;;;;;;;;;;;;;18.19;58.71;99475.31;2218738;79;51490;-76
2023/04/13 02:19:46;;;;;;;;;;;;;;;18.22;58.59;99471.39;2232634;78;50423;-75
2023/04/13 02:22:48;;;;;;;;;;;;;;;18.19;58.64;99471.30;2271122;78;50627;-76
2023/04/13 02:25:50;;;;;;;;;;;;;;;18.26;58.45;99476.62;2259260;78;50613;-74
2023/04/13 02:28:51;;;;;;;;;;;;;;;18.25;58.46;99473.13;2260374;78;50710;-75
2023/04/13 02:31:53;;;;;;;;;;;;;;;18.25;58.51;99472.31;2259929;78;50243;-75
2023/04/13 02:34:55;;;;;;;;;;;;;;;18.24;58.57;99474.17;2259301;78;51397;-75
2023/04/13 02:37:57;;;;;;;;;;;;;;;18.26;58.53;99468.59;2278919;78;50659;-75
2023/04/13 02:40:59;;;;;;;;;;;;;;;18.24;58.45;99469.34;2278964;77;50277;-76
2023/04/13 02:44:00;;;;;;;;;;;;;;;18.24;58.49;99478.19;2278628;78;50670;-75
2023/04/13 02:47:02;;;;;;;;;;;;;;;18.23;58.44;99477.05;2234639;78;52437;-75
2023/04/13 02:50:04;;;;;;;;;;;;;;;18.24;58.50;99480.05;2243672;78;51610;-75
2023/04/13 02:53:06;;;;;;;;;;;;;;;18.23;58.58;99479.72;2274489;78;50103;-76
2023/04/13 02:56:08;;;;;;;;;;;;;;;18.21;58.54;99481.78;2258754;78;51658;-75
2023/04/13 02:59:10;;;;;;;;;;;;;;;18.21;58.49;99477.77;2259173;78;49528;-75
2023/04/13 03:02:13;;;;;;;;;;;;;;;18.20;58.55;99489.52;2259328;78;50230;-76
2023/04/13 03:05:15;;;;;;;;;;;;;;;18.21;58.47;99483.12;2259160;78;51689;-75
2023/04/13 03:08:16;;;;;;;;;;;;;;;18.18;58.50;99480.86;2278752;78;50032;-75
2023/04/13 03:11:19;;;;;;;;;;;;;;;18.23;58.43;99486.41;2279024;78;50586;-76
2023/04/13 03:14:21;;;;;;;;;;;;;;;18.20;58.55;99497.55;2259149;78;51488;-75
2023/04/13 03:17:22;;;;;;;;;;;;;;;18.19;58.73;99501.27;2250813;78;50226;-77
2023/04/13 03:20:24;;;;;;;;;;;;;;;18.16;58.94;99500.32;2241590;78;50415;-77
2023/04/13 03:23:25;;;;;;;;;;;;;;;18.17;58.79;99500.64;2187772;79;51037;-77
2023/04/13 03:26:27;;;;;;;;;;;;;;;18.22;58.72;99512.89;2240760;78;50630;-76
2023/04/13 03:29:28;;;;;;;;;;;;;;;18.25;58.72;99515.15;2218588;79;50658;-76
2023/04/13 03:32:31;;;;;;;;;;;;;;;18.27;58.67;99517.11;2241148;79;51469;-77
2023/04/13 03:35:32;;;;;;;;;;;;;;;18.27;58.56;99503.72;2218150;79;51204;-76
2023/04/13 03:38:34;;;;;;;;;;;;;;;18.26;58.57;99507.41;2218508;79;50257;-76
2023/04/13 03:41:35;;;;;;;;;;;;;;;18.26;58.65;99503.39;2241736;79;50629;-76
2023/04/13 03:44:37;;;;;;;;;;;;;;;18.26;58.54;99504.73;2241026;79;50638;-77
2023/04/13 03:47:39;;;;;;;;;;;;;;;18.25;58.62;99511.13;2201637;78;51194;-76
2023/04/13 03:50:41;;;;;;;;;;;;;;;18.26;58.64;99508.75;2218157;79;51397;-74
2023/04/13 03:53:42;;;;;;;;;;;;;;;18.25;58.89;99513.29;2241716;79;50249;-73
2023/04/13 03:56:44;;;;;;;;;;;;;;;18.23;59.25;99509.99;2218665;79;49996;-73
2023/04/13 03:59:45;;;;;;;;;;;;;;;18.27;58.81;99517.11;2218505;79;51076;-74
2023/04/13 04:02:47;;;;;;;;;;;;;;;18.26;58.80;99523.48;2241626;79;50613;-73
2023/04/13 04:05:48;;;;;;;;;;;;;;;18.27;58.88;99526.48;2218336;79;50741;-73
2023/04/13 04:08:50;;;;;;;;;;;;;;;18.25;58.85;99528.53;2218084;79;52127;-75
2023/04/13 04:11:52;;;;;;;;;;;;;;;18.24;58.85;99538.95;2218168;79;51232;-74
2023/04/13 04:14:53;;;;;;;;;;;;;;;18.23;58.93;99544.80;2266862;78;50064;-74
2023/04/13 04:17:55;;;;;;;;;;;;;;;18.23;58.93;99542.64;2230167;78;50261;-75
2023/04/13 04:20:56;;;;;;;;;;;;;;;18.22;59.02;99549.04;2278668;78;50655;-74
2023/04/13 04:23:59;;;;;;;;;;;;;;;18.23;59.09;99552.02;2278698;78;50701;-75
2023/04/13 04:27:01;;;;;;;;;;;;;;;18.25;59.18;99562.01;2278876;78;51490;-75
2023/04/13 04:30:04;;;;;;;;;;;;;;;18.22;59.30;99560.56;2278292;78;50770;-75
2023/04/13 04:33:06;;;;;;;;;;;;;;;18.22;59.35;99555.73;2278226;78;51538;-74
2023/04/13 04:36:15;;;;;;;;;;;;;;;18.21;59.33;99557.59;2258586;78;52554;-75
2023/04/13 04:39:13;;;;;;;;;;;;;;;18.28;59.75;99566.42;2258747;78;22294;-74
2023/04/13 04:42:17;;;;;;;;;;;;;;;18.28;59.51;99574.98;2279958;78;50765;-72
2023/04/13 04:45:19;;;;;;;;;;;;;;;18.26;59.69;99582.39;2255124;78;22329;-74
2023/04/13 04:48:23;;;;;;;;;;;;;;;18.28;59.62;99583.83;2232534;78;52956;-74
2023/04/13 04:51:26;;;;;;;;;;;;;;;18.27;59.58;99576.84;2254050;78;22620;-74
2023/04/13 04:54:27;;;;;;;;;;;;;;;18.24;59.58;99569.74;2264348;78;22466;-74
2023/04/13 04:57:29;;;;;;;;;;;;;;;18.21;59.47;99563.44;2250801;78;50848;-73
2023/04/13 05:00:30;;;;;;;;;;;;;;;18.21;59.66;99568.80;2231388;77;52189;-73
2023/04/13 05:03:32;;;;;;;;;;;;;;;18.24;59.50;99570.56;2220476;79;51424;-73
2023/04/13 05:06:34;;;;;;;;;;;;;;;18.24;60.17;99572.42;2233559;78;50294;-75
2023/04/13 05:09:37;;;;;;;;;;;;;;;18.27;60.33;99572.82;2218582;79;50506;-74
2023/04/13 05:12:39;;;;;;;;;;;;;;;18.24;60.13;99570.56;2219713;78;52469;-78
2023/04/13 05:15:40;;;;;;;;;;;;;;;18.23;60.36;99570.75;2211103;79;51614;-74
2023/04/13 05:18:45;;;;;;;;;;;;;;;18.24;60.15;99563.05;2230933;80;51564;-74
2023/04/13 05:21:47;;;;;;;;;;;;;;;18.25;60.24;99580.23;2227118;78;50699;-74
2023/04/13 05:24:48;;;;;;;;;;;;;;;18.23;60.26;99583.63;2210049;78;52488;-73
2023/04/13 05:27:50;;;;;;;;;;;;;;;18.22;60.19;99590.55;2243699;78;50709;-74
2023/04/13 05:30:52;;;;;;;;;;;;;;;18.24;60.30;99596.00;2213587;79;50652;-74
2023/04/13 05:33:54;;;;;;;;;;;;;;;18.24;60.17;99601.36;2230514;79;50672;-73
2023/04/13 05:36:56;;;;;;;;;;;;;;;18.26;60.08;99593.09;2217309;79;52593;-72
2023/04/13 05:39:58;;;;;;;;;;;;;;;18.26;60.14;99607.83;2230646;80;50753;-72
2023/04/13 05:43:00;;;;;;;;;;;;;;;18.24;60.16;99601.88;2236669;78;50294;-74
2023/04/13 05:46:02;;;;;;;;;;;;;;;18.24;60.27;99607.23;2267286;77;51590;-73
2023/04/13 05:49:03;;;;;;;;;;;;;;;18.24;60.10;99608.05;2231749;78;52344;-73
2023/04/13 05:52:06;;;;;;;;;;;;;;;18.24;60.74;99620.09;2223306;80;51657;-72
2023/04/13 05:55:08;;;;;;;;;;;;;;;18.25;61.34;99621.73;2226515;80;50347;-73
2023/04/13 05:58:09;;;;;;;;;;;;;;;18.28;61.38;99631.20;2226632;80;51428;-74
2023/04/13 06:01:11;;;;;;;;;;;;;;;18.32;60.90;99627.10;2202727;80;51189;-73
2023/04/13 06:04:14;;;;;;;;;;;;;;;18.35;62.22;99626.69;2226522;78;51519;-75
2023/04/13 06:07:16;;;;;;;;;;;;;;;18.34;62.08;99641.12;2223415;78;51587;-75
2023/04/13 06:10:18;;;;;;;;;;;;;;;18.36;62.18;99647.59;2234181;78;51614;-75
2023/04/13 06:13:19;;;;;;;;;;;;;;;18.34;62.39;99653.17;2242114;78;50709;-76
2023/04/13 06:16:22;;;;;;;;;;;;;;;18.34;61.79;99653.17;2241457;79;50603;-74
2023/04/13 06:19:24;;;;;;;;;;;;;;;18.34;61.81;99657.19;2232715;79;50335;-75
2023/04/13 06:22:26;;;;;;;;;;;;;;;18.36;61.39;99658.30;2218408;79;50806;-75
2023/04/13 06:25:27;;;;;;;;;;;;;;;18.37;61.34;99658.59;2187479;79;53660;-75
2023/04/13 06:28:30;;;;;;;;;;;;;;;18.37;61.29;99662.12;2218068;79;51476;-75
2023/04/13 06:31:32;;;;;;;;;;;;;;;18.39;61.05;99665.39;2241055;79;50429;-74
2023/04/13 06:34:34;;;;;;;;;;;;;;;18.37;61.09;99666.14;2218063;79;50284;-75
2023/04/13 06:37:37;;;;;;;;;;;;;;;18.39;60.93;99674.77;2219840;79;52952;-76
2023/04/13 06:40:39;;;;;;;;;;;;;;;18.36;61.10;99673.84;2223074;80;50031;-76
2023/04/13 06:43:40;;;;;;;;;;;;;;;18.35;61.37;99692.30;2223049;79;50622;-76
2023/04/13 06:46:42;;;;;;;;;;;;;;;18.34;61.17;99697.36;2234518;78;50626;-75
2023/04/13 06:49:44;;;;;;;;;;;;;;;18.32;61.55;99700.75;2193180;78;52462;-75
2023/04/13 06:52:46;;;;;;;;;;;;;;;18.32;61.30;99708.78;2221665;79;52516;-76
2023/04/13 06:55:47;;;;;;;;;;;;;;;18.34;60.75;99712.09;2258701;78;50345;-74
2023/04/13 06:58:49;;;;;;;;;;;;;;;18.35;60.78;99714.24;2277613;78;50782;-72
2023/04/13 07:01:51;;;;;;;;;;;;;;;18.34;60.72;99724.14;2258993;78;50303;-70
2023/04/13 07:04:53;;;;;;;;;;;;;;;18.34;60.88;99723.29;2258218;78;52494;-72
2023/04/13 07:07:55;;;;;;;;;;;;;;;18.41;60.69;99733.50;2259089;78;51501;-72
2023/04/13 07:10:56;;;;;;;;;;;;;;;18.39;60.86;99729.67;2277876;78;50643;-71
2023/04/13 07:13:58;;;;;;;;;;;;;;;18.42;60.86;99727.95;2258931;78;50330;-71
2023/04/13 07:17:00;;;;;;;;;;;;;;;18.40;60.97;99728.67;2244906;78;51745;-71
2023/04/13 07:20:03;;;;;;;;;;;;;;;18.40;61.13;99722.49;2208838;79;51437;-72
2023/04/13 07:23:05;;;;;;;;;;;;;;;18.41;61.30;99718.25;2186354;80;50799;-72
2023/04/13 07:26:06;;;;;;;;;;;;;;;18.40;61.26;99722.49;2201822;80;50325;-71
2023/04/13 07:29:12;;;;;;;;;;;;;;;18.40;61.37;99720.63;2198262;79;52537;-71
2023/04/13 07:32:12;;;;;;;;;;;;;;;18.43;61.35;99729.59;2221671;79;22214;-72
2023/04/13 07:35:14;;;;;;;;;;;;;;;18.43;61.33;99729.59;2240209;78;51589;-71
2023/04/13 07:38:15;;;;;;;;;;;;;;;18.45;61.40;99726.72;2268921;78;50470;-72
2023/04/13 07:41:20;;;;;;;;;;;;;;;18.45;61.34;99722.18;2260981;77;50552;-71
2023/04/13 07:44:20;;;;;;;;;;;;;;;18.45;61.37;99731.56;2242481;78;22654;-72
2023/04/13 07:47:22;;;;;;;;;;;;;;;18.47;61.33;99748.75;2217747;79;51451;-72
2023/04/13 07:50:23;;;;;;;;;;;;;;;18.46;61.35;99742.56;2249505;78;50226;-72
2023/04/13 07:53:25;;;;;;;;;;;;;;;18.46;61.28;99737.73;2197789;79;51413;-71
2023/04/13 07:56:27;;;;;;;;;;;;;;;18.43;61.37;99748.34;2244559;78;51563;-72
2023/04/13 07:59:29;;;;;;;;;;;;;;;18.40;61.48;99742.06;2249506;78;52341;-72
2023/04/13 08:02:30;;;;;;;;;;;;;;;18.40;61.35;99750.09;2185629;80;50632;-72
2023/04/13 08:05:33;;;;;;;;;;;;;;;18.43;61.29;99742.16;2201820;80;51693;-74
2023/04/13 08:08:35;;;;;;;;;;;;;;;18.43;61.31;99745.66;2233883;78;50740;-72
2023/04/13 08:11:37;;;;;;;;;;;;;;;18.41;61.46;99751.73;2251946;79;50309;-73
2023/04/13 08:14:39;;;;;;;;;;;;;;;18.38;61.52;99765.53;2240051;79;51494;-72
2023/04/13 08:17:41;;;;;;;;;;;;;;;18.36;61.56;99762.23;2227264;78;51127;-73
2023/04/13 08:20:42;;;;;;;;;;;;;;;18.35;61.65;99762.45;2236410;78;51592;-73
2023/04/13 08:23:44;;;;;;;;;;;;;;;18.36;61.55;99765.42;2246885;78;51370;-72
2023/04/13 08:26:45;;;;;;;;;;;;;;;18.41;61.41;99776.36;2206540;79;51501;-72
2023/04/13 08:29:47;;;;;;;;;;;;;;;18.48;61.15;99783.38;2230620;78;50330;-73
2023/04/13 08:32:48;;;;;;;;;;;;;;;18.52;61.08;99782.45;2213911;78;50267;-73
2023/04/13 08:35:50;;;;;;;;;;;;;;;18.51;60.91;99783.48;2258824;78;50238;-72
2023/04/13 08:38:52;;;;;;;;;;;;;;;18.46;60.87;99794.80;2252757;78;51527;-72
2023/04/13 08:41:54;;;;;;;;;;;;;;;18.45;61.13;99790.48;2232101;79;52674;-73
2023/04/13 08:44:58;;;;;;;;;;;;;;;18.42;61.18;99786.88;2256539;78;50555;-73
2023/04/13 08:48:01;;;;;;;;;;;;;;;18.40;61.15;99793.47;2236081;78;50116;-72
2023/04/13 08:51:03;;;;;;;;;;;;;;;18.40;60.99;99787.59;2294051;77;50032;-72
2023/04/13 08:54:04;;;;;;;;;;;;;;;18.42;60.70;99785.54;2250997;78;50958;-72
2023/04/13 08:57:06;;;;;;;;;;;;;;;18.39;60.92;99793.95;2251944;78;51585;-72
2023/04/13 09:00:14;;;;;;;;;;;;;;;18.36;61.00;99802.41;2256190;78;50743;-71
2023/04/13 09:03:14;;;;;;;;;;;;;;;18.34;61.06;99792.43;2184580;80;22904;-72
2023/04/13 09:06:15;;;;;;;;;;;;;;;18.36;60.87;99794.37;2204455;78;52404;-72
2023/04/13 09:09:17;;;;;;;;;;;;;;;18.37;60.72;99794.70;2235346;79;50394;-72
2023/04/13 09:12:19;;;;;;;;;;;;;;;18.39;60.67;99794.48;2250135;79;50758;-72
2023/04/13 09:15:21;;;;;;;;;;;;;;;18.41;60.63;99802.63;2222375;79;50245;-71
2023/04/13 09:18:22;;;;;;;;;;;;;;;18.42;60.55;99803.44;2204360;79;49510;-73
2023/04/13 09:21:26;;;;;;;;;;;;;;;18.41;60.52;99805.82;2229883;78;51519;-72
2023/04/13 09:24:29;;;;;;;;;;;;;;;18.39;60.62;99808.69;2222657;78;51506;-74
2023/04/13 09:27:31;;;;;;;;;;;;;;;18.43;60.61;99805.93;2228718;78;51633;-73
2023/04/13 09:30:32;;;;;;;;;;;;;;;18.43;60.59;99804.59;2201881;80;52737;-72
2023/04/13 09:33:36;;;;;;;;;;;;;;;18.44;60.69;99820.96;2209314;79;51550;-72
2023/04/13 09:36:37;;;;;;;;;;;;;;;18.47;60.74;99811.20;2238754;78;51461;-71
2023/04/13 09:39:40;;;;;;;;;;;;;;;18.50;60.87;99824.71;2226787;79;51421;-74
2023/04/13 09:42:42;;;;;;;;;;;;;;;18.50;60.74;99809.45;2191487;80;51548;-72
2023/04/13 09:45:44;;;;;;;;;;;;;;;18.50;60.89;99812.66;2205048;78;51665;-74
2023/04/13 09:48:46;;;;;;;;;;;;;;;18.52;60.83;99809.75;2261914;77;50086;-73
2023/04/13 09:51:47;;;;;;;;;;;;;;;18.53;60.67;99818.13;2233428;78;51515;-71
2023/04/13 09:54:52;;;;;;;;;;;;;;;18.52;60.59;99825.83;2227730;78;52709;-72
2023/04/13 09:57:54;;;;;;;;;;;;;;;18.53;60.57;99808.75;2232121;77;50436;-72
2023/04/13 10:00:56;;;;;;;;;;;;;;;18.53;60.56;99808.75;2228681;78;51511;-72
2023/04/13 10:03:58;;;;;;;;;;;;;;;18.53;60.56;99807.41;2228749;78;50657;-73
2023/04/13 10:07:00;;;;;;;;;;;;;;;18.56;60.43;99819.88;2232603;79;51610;-72
2023/04/13 10:10:03;;;;;;;;;;;;;;;18.57;60.38;99816.67;2241249;78;50352;-72
2023/04/13 10:13:06;;;;;;;;;;;;;;;18.57;60.36;99818.01;2237425;78;51640;-72
2023/04/13 10:16:24;;;;;;;;;;;;;;;18.58;60.50;99819.68;2277721;77;51373;-73
2023/04/13 10:19:29;;;;;;;;;;;;;;;18.58;60.50;99827.72;2242225;78;50469;-73
2023/04/13 10:22:31;;;;;;;;;;;;;;;18.58;60.44;99825.04;2218025;79;51459;-72
2023/04/13 10:25:33;;;;;;;;;;;;;;;18.60;60.52;99828.31;2230356;80;50625;-71
2023/04/13 10:28:47;;;;;;;;;;;;;;;18.60;60.51;99829.66;2258307;78;50307;-71
2023/04/13 10:31:51;;;;;;;;;;;;;;;18.59;60.50;99824.81;2260815;78;50665;-72
2023/04/13 10:34:53;;;;;;;;;;;;;;;18.57;60.44;99828.73;2248374;78;50675;-71
2023/04/13 10:37:57;;;;;;;;;;;;;;;18.55;60.36;99832.97;2244073;77;52284;-71
2023/04/13 10:40:59;;;;;;;;;;;;;;;18.55;60.18;99828.09;2260096;78;51737;-72
2023/04/13 10:44:03;;;;;;;;;;;;;;;18.53;60.11;99836.36;2244079;78;51549;-71
2023/04/13 10:47:05;;;;;;;;;;;;;;;18.55;60.04;99828.09;2243318;78;51594;-70
2023/04/13 10:50:08;;;;;;;;;;;;;;;18.55;59.95;99828.95;2257551;78;50293;-72
2023/04/13 10:53:09;;;;;;;;;;;;;;;18.55;59.86;99831.63;2238150;78;49987;-71
2023/04/13 10:56:18;;;;;;;;;;;;;;;18.56;59.78;99840.48;2230645;78;50241;-72
2023/04/13 10:59:19;;;;;;;;;;;;;;;18.56;59.73;99848.00;2237446;78;50762;-70
2023/04/13 11:02:21;;;;;;;;;;;;;;;18.56;59.65;99847.18;2236712;78;51422;-71
2023/04/13 11:05:23;;;;;;;;;;;;;;;18.56;59.60;99846.66;2229704;80;50639;-71
2023/04/13 11:08:26;;;;;;;;;;;;;;;18.56;59.61;99852.02;2215123;78;51074;-72
2023/04/13 11:11:28;;;;;;;;;;;;;;;18.56;59.69;99855.22;2233468;79;50258;-73
2023/04/13 11:14:29;;;;;;;;;;;;;;;18.53;60.01;99859.64;2209348;80;49969;-72
2023/04/13 11:17:31;;;;;;;;;;;;;;;18.50;60.06;99861.69;2222224;78;51503;-71
2023/04/13 11:20:33;;;;;;;;;;;;;;;18.51;60.08;99862.52;2281421;77;52507;-72
2023/04/13 11:23:35;;;;;;;;;;;;;;;18.51;60.03;99859.84;2288841;77;50700;-71
2023/04/13 11:26:37;;;;;;;;;;;;;;;18.55;60.16;99865.12;2223642;79;51301;-72
2023/04/13 11:29:38;;;;;;;;;;;;;;;18.57;60.31;99866.23;2237280;78;50313;-71
2023/04/13 11:32:42;;;;;;;;;;;;;;;18.57;60.23;99869.73;2218619;78;49435;-71
2023/04/13 11:35:44;;;;;;;;;;;;;;;18.57;60.24;99862.21;2246044;78;50371;-72
2023/04/13 11:38:46;;;;;;;;;;;;;;;18.57;60.22;99866.23;2241460;78;51512;-70
2023/04/13 11:41:48;;;;;;;;;;;;;;;18.57;60.25;99872.94;2246518;78;51570;-71
2023/04/13 11:44:50;;;;;;;;;;;;;;;18.56;60.08;99865.94;2235803;78;52470;-71
2023/04/13 11:47:53;;;;;;;;;;;;;;;18.55;59.90;99873.64;2257872;78;50335;-72
2023/04/13 11:50:54;;;;;;;;;;;;;;;18.56;59.79;99867.27;2240561;78;50224;-72
2023/04/13 11:53:57;;;;;;;;;;;;;;;18.56;59.72;99876.65;2241064;78;52144;-72
2023/04/13 11:56:58;;;;;;;;;;;;;;;18.57;59.69;99870.25;2233091;78;49701;-72
2023/04/13 12:00:00;;;;;;;;;;;;;;;18.56;59.65;99882.83;2244363;78;51536;-72
2023/04/13 12:03:04;;;;;;;;;;;;;;;18.55;59.65;99875.83;2236492;78;50231;-72
2023/04/13 12:06:06;;;;;;;;;;;;;;;18.55;59.64;99877.66;2236986;78;50113;-73
2023/04/13 12:09:08;;;;;;;;;;;;;;;18.55;59.82;99877.66;2223779;78;51209;-71
2023/04/13 12:12:26;;;;;;;;;;;;;;;18.55;59.81;99873.64;2224503;78;50766;-71
2023/04/13 12:15:28;;;;;;;;;;;;;;;18.57;59.82;99872.94;2227354;78;51597;-72
2023/04/13 12:18:30;;;;;;;;;;;;;;;18.58;59.77;99871.92;2265273;77;50747;-72
2023/04/13 12:21:32;;;;;;;;;;;;;;;18.57;59.75;99871.59;2238645;78;52629;-72
2023/04/13 12:24:34;;;;;;;;;;;;;;;18.58;59.87;99872.74;2251428;78;50182;-72
2023/04/13 12:27:37;;;;;;;;;;;;;;;18.59;59.70;99870.36;2231599;79;51675;-72
2023/04/13 12:30:39;;;;;;;;;;;;;;;18.61;59.70;99875.02;2234924;78;51543;-71
2023/04/13 12:33:41;;;;;;;;;;;;;;;18.61;59.75;99874.19;2229006;78;51504;-72
2023/04/13 12:36:42;;;;;;;;;;;;;;;18.59;59.74;99874.90;2209869;78;51488;-72
2023/04/13 12:39:44;;;;;;;;;;;;;;;18.59;59.87;99873.56;2232564;79;51440;-73
2023/04/13 12:42:46;;;;;;;;;;;;;;;18.63;59.93;99877.50;2204708;78;50444;-71
2023/04/13 12:45:48;;;;;;;;;;;;;;;18.63;59.49;99875.64;2249396;78;52383;-74
2023/04/13 12:48:50;;;;;;;;;;;;;;;18.64;59.40;99877.28;2260343;78;50709;-74
2023/04/13 12:51:51;;;;;;;;;;;;;;;18.63;59.33;99881.52;2222048;79;50131;-73
2023/04/13 12:54:54;;;;;;;;;;;;;;;18.62;59.30;99879.85;2254713;77;50004;-72
2023/04/13 12:57:55;;;;;;;;;;;;;;;18.61;59.32;99880.38;2213768;78;51842;-72
2023/04/13 13:00:57;;;;;;;;;;;;;;;18.63;59.28;99881.52;2233453;78;51441;-72
2023/04/13 13:03:59;;;;;;;;;;;;;;;18.61;59.24;99877.69;2227833;78;50338;-73
2023/04/13 13:07:00;;;;;;;;;;;;;;;18.60;59.19;99875.20;2235853;78;50637;-74
2023/04/13 13:10:02;;;;;;;;;;;;;;;18.63;59.33;99872.14;2221891;79;49811;-74
2023/04/13 13:13:05;;;;;;;;;;;;;;;18.63;59.23;99875.64;2228640;78;51599;-73
2023/04/13 13:16:06;;;;;;;;;;;;;;;18.61;59.20;99882.23;2271497;78;50092;-75
2023/04/13 13:19:08;;;;;;;;;;;;;;;18.61;59.19;99878.21;2226544;79;51526;-72
2023/04/13 13:22:09;;;;;;;;;;;;;;;18.61;59.29;99871.52;2224987;78;51730;-72
2023/04/13 13:25:11;;;;;;;;;;;;;;;18.60;59.21;99880.56;2248922;78;50234;-72
2023/04/13 13:28:13;;;;;;;;;;;;;;;18.61;59.14;99870.99;2281816;78;50123;-72
2023/04/13 13:31:14;;;;;;;;;;;;;;;18.66;58.99;99861.02;2281921;78;50636;-72
2023/04/13 13:34:16;;;;;;;;;;;;;;;18.66;58.95;99865.03;2279472;78;50064;-72
2023/04/13 13:37:18;;;;;;;;;;;;;;;18.66;58.92;99866.38;2213007;79;51582;-73
2023/04/13 13:40:19;;;;;;;;;;;;;;;18.67;58.87;99866.16;2213033;79;51433;-72
2023/04/13 13:43:21;;;;;;;;;;;;;;;18.67;58.84;99872.85;2244895;79;51476;-73
2023/04/13 13:46:22;;;;;;;;;;;;;;;18.66;58.97;99882.45;2202425;78;50966;-72
2023/04/13 13:49:26;;;;;;;;;;;;;;;18.61;59.08;99879.55;2259108;78;52365;-73
2023/04/13 13:52:27;;;;;;;;;;;;;;;18.58;59.17;99878.63;2212307;79;51486;-72
2023/04/13 13:55:29;;;;;;;;;;;;;;;18.56;59.42;99881.48;2212472;79;51464;-72
2023/04/13 13:58:31;;;;;;;;;;;;;;;18.59;59.31;99878.40;2212909;79;52560;-74
2023/04/13 14:01:33;;;;;;;;;;;;;;;18.58;59.53;99885.31;2259885;78;51694;-74
2023/04/13 14:04:35;;;;;;;;;;;;;;;18.57;59.34;99883.65;2235095;79;50711;-74
2023/04/13 14:07:37;;;;;;;;;;;;;;;18.62;59.23;99878.52;2235338;79;51640;-72
2023/04/13 14:10:39;;;;;;;;;;;;;;;18.67;59.28;99888.11;2210737;79;49309;-73
2023/04/13 14:13:40;;;;;;;;;;;;;;;18.67;59.25;99890.79;2244120;79;51421;-73
2023/04/13 14:16:42;;;;;;;;;;;;;;;18.69;59.36;99899.45;2241548;78;51636;-74
2023/04/13 14:19:43;;;;;;;;;;;;;;;18.77;59.29;99901.16;2251491;77;51439;-74
2023/04/13 14:22:45;;;;;;;;;;;;;;;18.71;59.42;99897.41;2212307;79;49572;-72
2023/04/13 14:25:47;;;;;;;;;;;;;;;18.74;59.48;99898.86;2244250;79;51442;-73
2023/04/13 14:28:49;;;;;;;;;;;;;;;18.72;59.50;99891.83;2223289;78;51455;-72
2023/04/13 14:31:51;;;;;;;;;;;;;;;18.70;59.51;99901.95;2262935;78;51628;-73
2023/04/13 14:34:53;;;;;;;;;;;;;;;18.69;59.59;99895.44;2264313;78;50897;-72
2023/04/13 14:37:55;;;;;;;;;;;;;;;18.78;59.47;99886.23;2262772;78;51584;-72
2023/04/13 14:40:57;;;;;;;;;;;;;;;18.73;59.64;99914.12;2262909;78;51675;-71
2023/04/13 14:43:58;;;;;;;;;;;;;;;18.74;59.69;99910.92;2264201;78;51480;-73
2023/04/13 14:47:00;;;;;;;;;;;;;;;18.78;59.67;99919.73;2266340;78;51080;-72
2023/04/13 14:50:02;;;;;;;;;;;;;;;18.75;59.78;99912.07;2212988;79;51776;-75
2023/04/13 14:53:06;;;;;;;;;;;;;;;18.77;59.74;99899.82;2244898;79;50451;-74
2023/04/13 14:56:07;;;;;;;;;;;;;;;18.75;59.67;99902.69;2244779;79;22460;-74
2023/04/13 14:59:08;;;;;;;;;;;;;;;18.74;59.76;99909.06;2213344;79;52724;-76
2023/04/13 15:02:10;;;;;;;;;;;;;;;18.75;59.90;99917.43;2268731;78;51480;-72
2023/04/13 15:05:12;;;;;;;;;;;;;;;18.74;59.87;99922.45;2246942;77;50343;-74
2023/04/13 15:08:15;;;;;;;;;;;;;;;18.72;59.90;99914.61;2258982;78;50131;-73
2023/04/13 15:11:17;;;;;;;;;;;;;;;18.69;59.88;99911.00;2212749;79;52622;-73
2023/04/13 15:14:18;;;;;;;;;;;;;;;18.67;59.95;99917.06;2226375;78;51572;-73
2023/04/13 15:17:20;;;;;;;;;;;;;;;18.65;59.98;99923.16;2217973;78;51574;-72
2023/04/13 15:20:21;;;;;;;;;;;;;;;18.65;60.01;99929.02;2226937;77;53587;-72
2023/04/13 15:23:23;;;;;;;;;;;;;;;18.67;60.03;99935.00;2212723;79;50909;-71
2023/04/13 15:26:25;;;;;;;;;;;;;;;18.68;59.95;99950.08;2212356;79;51509;-71
2023/04/13 15:29:26;;;;;;;;;;;;;;;18.69;60.05;99943.67;2240715;79;51356;-72
2023/04/13 15:32:29;;;;;;;;;;;;;;;18.70;60.06;99943.97;2182513;80;51489;-71
2023/04/13 15:35:30;;;;;;;;;;;;;;;18.71;59.97;99941.63;2217755;79;51392;-71
2023/04/13 15:38:32;;;;;;;;;;;;;;;18.68;59.84;99946.88;2204588;80;50672;-71
2023/04/13 15:41:34;;;;;;;;;;;;;;;18.67;59.78;99948.40;2242377;79;51514;-72
2023/04/13 15:44:35;;;;;;;;;;;;;;;18.68;59.77;99954.09;2204477;79;50376;-71
2023/04/13 15:47:37;;;;;;;;;;;;;;;18.66;59.69;99950.27;2227700;78;50916;-71
2023/04/13 15:50:38;;;;;;;;;;;;;;;18.64;59.70;99956.84;2246146;78;51462;-71